aviador You're here:

OING Decoded Metar

GORGAN in IRAN
Report Time2017-08-17 13:00:00
UTC Time2017-08-17 13:27:54
Flight Rules vfr VFR
Wind260° at 12 kt
W.Decomp.*RWY 31: 7.2 kt HW 9.6 kt LCW
W.Rank260° ranks 4
Current wind is above 260° avg. (10.8)
Visibility9999 m
Phenomena:N/A
Clouds:Few TCU 030 Hf
Expected CloudBase > 4,400 ft AGL from Temp-Dew spread
CeilingNone
Temp33°C (ISA +19)
Dew Point22°C (52% RH)
Heat Index36.9°C
QNH1011 hPa
Density Alt3,091 ft
Elevation509 ft
Report Wrong Elevation
Raw Report
METAR OING 171300Z 26012KT 9999 FEW030TCU 33/22 Q1011=

Extra information for OING:More info

Metar Taf Metar & Taf Last 4 Metars F.Rules Stats Wind Profile Meteogram Temp Stats Airport Information Weather charts Add Link Nearby VenuesMetar ALERT Operation Metar Decoded Social comments